sensor_id;sensor_type;location;lat;lon;timestamp;temperature;humidity
18948;DHT22;9607;51.600;7.558;2023-07-13T00:01:54;16.90;99.90
18948;DHT22;9607;51.600;7.558;2023-07-13T00:04:24;16.90;99.90
18948;DHT22;9607;51.600;7.558;2023-07-13T00:06:51;16.90;99.90
18948;DHT22;9607;51.600;7.558;2023-07-13T00:09:19;16.80;99.90
18948;DHT22;9607;51.600;7.558;2023-07-13T00:11:54;16.80;99.90
18948;DHT22;9607;51.600;7.558;2023-07-13T00:14:21;16.80;99.90
18948;DHT22;9607;51.600;7.558;2023-07-13T00:16:48;16.80;99.90
18948;DHT22;9607;51.600;7.558;2023-07-13T00:19:15;16.80;99.90
18948;DHT22;9607;51.600;7.558;2023-07-13T00:21:43;16.80;99.90
18948;DHT22;9607;51.600;7.558;2023-07-13T00:24:12;16.80;99.90
18948;DHT22;9607;51.600;7.558;2023-07-13T00:26:39;16.70;99.90
18948;DHT22;9607;51.600;7.558;2023-07-13T00:29:06;16.80;99.90
18948;DHT22;9607;51.600;7.558;2023-07-13T00:31:35;16.80;99.90
18948;DHT22;9607;51.600;7.558;2023-07-13T00:34:01;16.80;99.90
18948;DHT22;9607;51.600;7.558;2023-07-13T00:36:29;16.70;99.90
18948;DHT22;9607;51.600;7.558;2023-07-13T00:38:58;16.70;99.90
18948;DHT22;9607;51.600;7.558;2023-07-13T00:41:24;16.60;99.90
18948;DHT22;9607;51.600;7.558;2023-07-13T00:43:51;16.60;99.90
18948;DHT22;9607;51.600;7.558;2023-07-13T00:46:24;16.50;99.90
18948;DHT22;9607;51.600;7.558;2023-07-13T00:48:53;16.50;99.90
18948;DHT22;9607;51.600;7.558;2023-07-13T00:51:25;16.40;99.90
18948;DHT22;9607;51.600;7.558;2023-07-13T00:53:55;16.40;99.90
18948;DHT22;9607;51.600;7.558;2023-07-13T00:56:24;16.30;99.90
18948;DHT22;9607;51.600;7.558;2023-07-13T00:58:52;16.30;99.90
18948;DHT22;9607;51.600;7.558;2023-07-13T01:01:19;16.20;99.90
18948;DHT22;9607;51.600;7.558;2023-07-13T01:03:46;16.20;99.90
18948;DHT22;9607;51.600;7.558;2023-07-13T01:06:13;16.10;99.90
18948;DHT22;9607;51.600;7.558;2023-07-13T01:08:40;16.00;99.90
18948;DHT22;9607;51.600;7.558;2023-07-13T01:11:07;15.90;99.90
18948;DHT22;9607;51.600;7.558;2023-07-13T01:13:35;15.90;99.90
18948;DHT22;9607;51.600;7.558;2023-07-13T01:16:05;15.80;99.90
18948;DHT22;9607;51.600;7.558;2023-07-13T01:18:38;15.80;99.90
18948;DHT22;9607;51.600;7.558;2023-07-13T01:21:07;15.70;99.90
18948;DHT22;9607;51.600;7.558;2023-07-13T01:23:33;15.60;99.90
18948;DHT22;9607;51.600;7.558;2023-07-13T01:26:00;15.60;99.90
18948;DHT22;9607;51.600;7.558;2023-07-13T01:28:28;15.60;99.90
18948;DHT22;9607;51.600;7.558;2023-07-13T01:30:57;15.50;99.90
18948;DHT22;9607;51.600;7.558;2023-07-13T01:33:24;15.50;99.90
18948;DHT22;9607;51.600;7.558;2023-07-13T01:35:51;15.40;99.90
18948;DHT22;9607;51.600;7.558;2023-07-13T01:38:22;15.40;99.90
18948;DHT22;9607;51.600;7.558;2023-07-13T01:40:49;15.40;99.90
18948;DHT22;9607;51.600;7.558;2023-07-13T01:43:16;15.40;99.90
18948;DHT22;9607;51.600;7.558;2023-07-13T01:45:43;15.50;99.90
18948;DHT22;9607;51.600;7.558;2023-07-13T01:48:11;15.40;99.90
18948;DHT22;9607;51.600;7.558;2023-07-13T01:50:38;15.40;99.90
18948;DHT22;9607;51.600;7.558;2023-07-13T01:53:05;15.40;99.90
18948;DHT22;9607;51.600;7.558;2023-07-13T01:55:33;15.40;99.90
18948;DHT22;9607;51.600;7.558;2023-07-13T01:58:00;15.40;99.90
18948;DHT22;9607;51.600;7.558;2023-07-13T02:00:27;15.40;99.90
18948;DHT22;9607;51.600;7.558;2023-07-13T02:02:54;15.40;99.90
18948;DHT22;9607;51.600;7.558;2023-07-13T02:05:21;15.40;99.90
18948;DHT22;9607;51.600;7.558;2023-07-13T02:07:48;15.50;99.90
18948;DHT22;9607;51.600;7.558;2023-07-13T02:10:16;15.50;99.90
18948;DHT22;9607;51.600;7.558;2023-07-13T02:12:44;15.50;99.90
18948;DHT22;9607;51.600;7.558;2023-07-13T02:15:10;15.50;99.90
18948;DHT22;9607;51.600;7.558;2023-07-13T02:17:37;15.50;99.90
18948;DHT22;9607;51.600;7.558;2023-07-13T02:20:05;15.50;99.90
18948;DHT22;9607;51.600;7.558;2023-07-13T02:22:32;15.50;99.90
18948;DHT22;9607;51.600;7.558;2023-07-13T02:24:59;15.50;99.90
18948;DHT22;9607;51.600;7.558;2023-07-13T02:27:26;15.50;99.90
18948;DHT22;9607;51.600;7.558;2023-07-13T02:29:54;15.50;99.90
18948;DHT22;9607;51.600;7.558;2023-07-13T02:32:21;15.50;99.90
18948;DHT22;9607;51.600;7.558;2023-07-13T02:34:50;15.40;99.90
18948;DHT22;9607;51.600;7.558;2023-07-13T02:37:17;15.40;99.90
18948;DHT22;9607;51.600;7.558;2023-07-13T02:39:44;15.40;99.90
18948;DHT22;9607;51.600;7.558;2023-07-13T02:42:11;15.40;99.90
18948;DHT22;9607;51.600;7.558;2023-07-13T02:44:38;15.40;99.90
18948;DHT22;9607;51.600;7.558;2023-07-13T02:47:06;15.30;99.90
18948;DHT22;9607;51.600;7.558;2023-07-13T02:49:33;15.30;99.90
18948;DHT22;9607;51.600;7.558;2023-07-13T02:52:00;15.20;99.90
18948;DHT22;9607;51.600;7.558;2023-07-13T02:54:27;15.20;99.90
18948;DHT22;9607;51.600;7.558;2023-07-13T02:56:53;15.20;99.90
18948;DHT22;9607;51.600;7.558;2023-07-13T02:59:20;15.20;99.90
18948;DHT22;9607;51.600;7.558;2023-07-13T03:01:47;15.10;99.90
18948;DHT22;9607;51.600;7.558;2023-07-13T03:04:15;15.10;99.90
18948;DHT22;9607;51.600;7.558;2023-07-13T03:06:45;15.10;99.90
18948;DHT22;9607;51.600;7.558;2023-07-13T03:09:11;15.10;99.90
18948;DHT22;9607;51.600;7.558;2023-07-13T03:11:38;15.10;99.90
18948;DHT22;9607;51.600;7.558;2023-07-13T03:14:05;15.20;99.90
18948;DHT22;9607;51.600;7.558;2023-07-13T03:16:32;15.10;99.90
18948;DHT22;9607;51.600;7.558;2023-07-13T03:18:59;15.10;99.90
18948;DHT22;9607;51.600;7.558;2023-07-13T03:21:27;15.20;99.90
18948;DHT22;9607;51.600;7.558;2023-07-13T03:23:53;15.20;99.90
18948;DHT22;9607;51.600;7.558;2023-07-13T03:26:24;15.20;99.90
18948;DHT22;9607;51.600;7.558;2023-07-13T03:28:51;15.20;99.90
18948;DHT22;9607;51.600;7.558;2023-07-13T03:31:20;15.20;99.90
18948;DHT22;9607;51.600;7.558;2023-07-13T03:33:47;15.20;99.90
18948;DHT22;9607;51.600;7.558;2023-07-13T03:36:16;15.20;99.90
18948;DHT22;9607;51.600;7.558;2023-07-13T03:38:46;15.20;99.90
18948;DHT22;9607;51.600;7.558;2023-07-13T03:41:13;15.20;99.90
18948;DHT22;9607;51.600;7.558;2023-07-13T03:43:40;15.20;99.90
18948;DHT22;9607;51.600;7.558;2023-07-13T03:46:07;15.10;99.90
18948;DHT22;9607;51.600;7.558;2023-07-13T03:48:34;15.20;99.90
18948;DHT22;9607;51.600;7.558;2023-07-13T03:51:00;15.20;99.90
18948;DHT22;9607;51.600;7.558;2023-07-13T03:53:27;15.20;99.90
18948;DHT22;9607;51.600;7.558;2023-07-13T03:55:55;15.10;99.90
18948;DHT22;9607;51.600;7.558;2023-07-13T03:58:28;15.20;99.90
18948;DHT22;9607;51.600;7.558;2023-07-13T04:00:57;15.20;99.90
18948;DHT22;9607;51.600;7.558;2023-07-13T04:03:24;15.20;99.90
18948;DHT22;9607;51.600;7.558;2023-07-13T04:05:54;15.20;99.90
18948;DHT22;9607;51.600;7.558;2023-07-13T04:08:25;15.20;99.90
18948;DHT22;9607;51.600;7.558;2023-07-13T04:10:52;15.20;99.90
18948;DHT22;9607;51.600;7.558;2023-07-13T04:13:21;15.30;99.90
18948;DHT22;9607;51.600;7.558;2023-07-13T04:15:47;15.30;99.90
18948;DHT22;9607;51.600;7.558;2023-07-13T04:18:14;15.30;99.90
18948;DHT22;9607;51.600;7.558;2023-07-13T04:20:41;15.40;99.90
18948;DHT22;9607;51.600;7.558;2023-07-13T04:23:08;15.40;99.90
18948;DHT22;9607;51.600;7.558;2023-07-13T04:25:34;15.40;99.90
18948;DHT22;9607;51.600;7.558;2023-07-13T04:28:02;15.40;99.90
18948;DHT22;9607;51.600;7.558;2023-07-13T04:30:31;15.50;99.90
18948;DHT22;9607;51.600;7.558;2023-07-13T04:32:58;15.50;99.90
18948;DHT22;9607;51.600;7.558;2023-07-13T04:35:24;15.50;99.90
18948;DHT22;9607;51.600;7.558;2023-07-13T04:37:51;15.60;99.90
18948;DHT22;9607;51.600;7.558;2023-07-13T04:40:29;15.60;99.90
18948;DHT22;9607;51.600;7.558;2023-07-13T04:42:56;15.70;99.90
18948;DHT22;9607;51.600;7.558;2023-07-13T04:45:24;15.70;99.90
18948;DHT22;9607;51.600;7.558;2023-07-13T04:47:53;15.80;99.90
18948;DHT22;9607;51.600;7.558;2023-07-13T04:50:20;15.80;99.90
18948;DHT22;9607;51.600;7.558;2023-07-13T04:52:49;15.90;99.90
18948;DHT22;9607;51.600;7.558;2023-07-13T04:55:16;15.90;99.90
18948;DHT22;9607;51.600;7.558;2023-07-13T04:57:44;16.00;99.90
18948;DHT22;9607;51.600;7.558;2023-07-13T05:00:12;16.00;99.90
18948;DHT22;9607;51.600;7.558;2023-07-13T05:02:39;16.10;99.90
18948;DHT22;9607;51.600;7.558;2023-07-13T05:05:08;16.10;99.90
18948;DHT22;9607;51.600;7.558;2023-07-13T05:07:34;16.20;99.90
18948;DHT22;9607;51.600;7.558;2023-07-13T05:10:02;16.20;99.90
18948;DHT22;9607;51.600;7.558;2023-07-13T05:12:29;16.20;99.90
18948;DHT22;9607;51.600;7.558;2023-07-13T05:14:56;16.30;99.90
18948;DHT22;9607;51.600;7.558;2023-07-13T05:17:23;16.30;99.90
18948;DHT22;9607;51.600;7.558;2023-07-13T05:19:49;16.40;99.90
18948;DHT22;9607;51.600;7.558;2023-07-13T05:22:17;16.50;99.90
18948;DHT22;9607;51.600;7.558;2023-07-13T05:24:44;16.40;99.90
18948;DHT22;9607;51.600;7.558;2023-07-13T05:27:11;16.50;99.90
18948;DHT22;9607;51.600;7.558;2023-07-13T05:29:38;16.50;99.90
18948;DHT22;9607;51.600;7.558;2023-07-13T05:32:05;16.50;99.90
18948;DHT22;9607;51.600;7.558;2023-07-13T05:34:32;16.60;99.90
18948;DHT22;9607;51.600;7.558;2023-07-13T05:36:59;16.60;99.90
18948;DHT22;9607;51.600;7.558;2023-07-13T05:39:28;16.70;99.90
18948;DHT22;9607;51.600;7.558;2023-07-13T05:41:54;16.80;99.90
18948;DHT22;9607;51.600;7.558;2023-07-13T05:44:21;16.90;99.90
18948;DHT22;9607;51.600;7.558;2023-07-13T05:46:48;16.90;99.90
18948;DHT22;9607;51.600;7.558;2023-07-13T05:49:15;17.00;99.90
18948;DHT22;9607;51.600;7.558;2023-07-13T05:51:41;17.10;99.90
18948;DHT22;9607;51.600;7.558;2023-07-13T05:54:09;17.20;99.90
18948;DHT22;9607;51.600;7.558;2023-07-13T05:56:37;17.20;99.90
18948;DHT22;9607;51.600;7.558;2023-07-13T05:59:03;17.30;99.90
18948;DHT22;9607;51.600;7.558;2023-07-13T06:01:31;17.30;99.90
18948;DHT22;9607;51.600;7.558;2023-07-13T06:03:59;17.40;99.90
18948;DHT22;9607;51.600;7.558;2023-07-13T06:06:26;17.50;99.90
18948;DHT22;9607;51.600;7.558;2023-07-13T06:08:53;17.50;99.90
18948;DHT22;9607;51.600;7.558;2023-07-13T06:11:21;17.60;99.90
18948;DHT22;9607;51.600;7.558;2023-07-13T06:13:50;17.60;99.90
18948;DHT22;9607;51.600;7.558;2023-07-13T06:16:17;17.60;99.90
18948;DHT22;9607;51.600;7.558;2023-07-13T06:18:44;17.70;99.90
18948;DHT22;9607;51.600;7.558;2023-07-13T06:21:13;17.60;99.90
18948;DHT22;9607;51.600;7.558;2023-07-13T06:23:40;17.70;99.90
18948;DHT22;9607;51.600;7.558;2023-07-13T06:26:08;17.80;99.90
18948;DHT22;9607;51.600;7.558;2023-07-13T06:28:36;17.80;99.90
18948;DHT22;9607;51.600;7.558;2023-07-13T06:31:07;18.00;99.90
18948;DHT22;9607;51.600;7.558;2023-07-13T06:33:34;18.00;99.90
18948;DHT22;9607;51.600;7.558;2023-07-13T06:36:01;18.10;99.90
18948;DHT22;9607;51.600;7.558;2023-07-13T06:38:28;18.20;99.90
18948;DHT22;9607;51.600;7.558;2023-07-13T06:40:55;18.30;99.90
18948;DHT22;9607;51.600;7.558;2023-07-13T06:43:21;18.40;99.90
18948;DHT22;9607;51.600;7.558;2023-07-13T06:45:51;18.50;99.90
18948;DHT22;9607;51.600;7.558;2023-07-13T06:48:19;18.60;99.90
18948;DHT22;9607;51.600;7.558;2023-07-13T06:50:47;18.70;99.90
18948;DHT22;9607;51.600;7.558;2023-07-13T06:53:15;18.80;99.90
18948;DHT22;9607;51.600;7.558;2023-07-13T06:55:44;19.00;99.90
18948;DHT22;9607;51.600;7.558;2023-07-13T06:58:11;19.10;99.90
18948;DHT22;9607;51.600;7.558;2023-07-13T07:00:38;19.20;99.90
18948;DHT22;9607;51.600;7.558;2023-07-13T07:03:05;19.30;99.90
18948;DHT22;9607;51.600;7.558;2023-07-13T07:05:34;19.30;99.90
18948;DHT22;9607;51.600;7.558;2023-07-13T07:08:00;19.30;99.90
18948;DHT22;9607;51.600;7.558;2023-07-13T07:10:29;19.20;99.90
18948;DHT22;9607;51.600;7.558;2023-07-13T07:12:56;19.00;99.90
18948;DHT22;9607;51.600;7.558;2023-07-13T07:15:23;18.90;99.90
18948;DHT22;9607;51.600;7.558;2023-07-13T07:17:50;18.90;99.90
18948;DHT22;9607;51.600;7.558;2023-07-13T07:20:17;18.80;99.90
18948;DHT22;9607;51.600;7.558;2023-07-13T07:22:45;18.70;99.90
18948;DHT22;9607;51.600;7.558;2023-07-13T07:25:12;18.70;99.90
18948;DHT22;9607;51.600;7.558;2023-07-13T07:27:39;18.70;99.90
18948;DHT22;9607;51.600;7.558;2023-07-13T07:30:06;18.60;99.90
18948;DHT22;9607;51.600;7.558;2023-07-13T07:32:33;18.60;99.90
18948;DHT22;9607;51.600;7.558;2023-07-13T07:35:00;18.60;99.90
18948;DHT22;9607;51.600;7.558;2023-07-13T07:37:27;18.70;99.90
18948;DHT22;9607;51.600;7.558;2023-07-13T07:39:55;18.80;99.90
18948;DHT22;9607;51.600;7.558;2023-07-13T07:42:22;19.00;99.90
18948;DHT22;9607;51.600;7.558;2023-07-13T07:44:48;19.20;99.90
18948;DHT22;9607;51.600;7.558;2023-07-13T07:47:15;19.30;99.90
18948;DHT22;9607;51.600;7.558;2023-07-13T07:49:42;19.40;99.90
18948;DHT22;9607;51.600;7.558;2023-07-13T07:52:09;19.50;99.90
18948;DHT22;9607;51.600;7.558;2023-07-13T07:54:36;19.60;99.90
18948;DHT22;9607;51.600;7.558;2023-07-13T07:57:05;19.60;99.90
18948;DHT22;9607;51.600;7.558;2023-07-13T07:59:32;19.70;99.90
18948;DHT22;9607;51.600;7.558;2023-07-13T08:01:58;19.70;99.90
18948;DHT22;9607;51.600;7.558;2023-07-13T08:04:27;19.80;99.90
18948;DHT22;9607;51.600;7.558;2023-07-13T08:06:54;19.90;99.90
18948;DHT22;9607;51.600;7.558;2023-07-13T08:09:21;20.10;99.90
18948;DHT22;9607;51.600;7.558;2023-07-13T08:11:48;20.40;99.90
18948;DHT22;9607;51.600;7.558;2023-07-13T08:14:18;20.50;99.90
18948;DHT22;9607;51.600;7.558;2023-07-13T08:16:44;20.60;99.90
18948;DHT22;9607;51.600;7.558;2023-07-13T08:19:11;20.80;99.90
18948;DHT22;9607;51.600;7.558;2023-07-13T08:21:38;20.90;99.90
18948;DHT22;9607;51.600;7.558;2023-07-13T08:24:05;20.90;99.90
18948;DHT22;9607;51.600;7.558;2023-07-13T08:26:31;20.90;99.90
18948;DHT22;9607;51.600;7.558;2023-07-13T08:28:58;20.80;99.90
18948;DHT22;9607;51.600;7.558;2023-07-13T08:31:26;20.70;99.90
18948;DHT22;9607;51.600;7.558;2023-07-13T08:33:53;20.70;99.90
18948;DHT22;9607;51.600;7.558;2023-07-13T08:36:20;20.70;99.90
18948;DHT22;9607;51.600;7.558;2023-07-13T08:38:47;20.70;99.90
18948;DHT22;9607;51.600;7.558;2023-07-13T08:41:15;20.80;99.90
18948;DHT22;9607;51.600;7.558;2023-07-13T08:43:45;20.80;99.90
18948;DHT22;9607;51.600;7.558;2023-07-13T08:46:18;21.00;99.90
18948;DHT22;9607;51.600;7.558;2023-07-13T08:48:49;21.10;99.90
18948;DHT22;9607;51.600;7.558;2023-07-13T08:51:27;21.30;99.90
18948;DHT22;9607;51.600;7.558;2023-07-13T08:53:59;21.40;99.90
18948;DHT22;9607;51.600;7.558;2023-07-13T08:56:28;21.50;99.90
18948;DHT22;9607;51.600;7.558;2023-07-13T08:58:57;21.80;99.90
18948;DHT22;9607;51.600;7.558;2023-07-13T09:01:28;22.00;99.90
18948;DHT22;9607;51.600;7.558;2023-07-13T09:04:03;22.10;99.90
18948;DHT22;9607;51.600;7.558;2023-07-13T09:06:45;22.20;99.90
18948;DHT22;9607;51.600;7.558;2023-07-13T09:09:21;22.30;98.90
18948;DHT22;9607;51.600;7.558;2023-07-13T09:11:56;22.20;98.70
18948;DHT22;9607;51.600;7.558;2023-07-13T09:14:44;22.10;98.50
18948;DHT22;9607;51.600;7.558;2023-07-13T09:17:16;22.00;99.30
18948;DHT22;9607;51.600;7.558;2023-07-13T09:19:47;21.90;99.90
18948;DHT22;9607;51.600;7.558;2023-07-13T09:22:19;21.70;99.90
18948;DHT22;9607;51.600;7.558;2023-07-13T09:24:54;21.70;99.90
18948;DHT22;9607;51.600;7.558;2023-07-13T09:27:25;21.60;99.90
18948;DHT22;9607;51.600;7.558;2023-07-13T09:29:58;21.50;99.90
18948;DHT22;9607;51.600;7.558;2023-07-13T09:32:29;21.60;99.90
18948;DHT22;9607;51.600;7.558;2023-07-13T09:34:57;21.60;99.90
18948;DHT22;9607;51.600;7.558;2023-07-13T09:37:30;21.70;99.90
18948;DHT22;9607;51.600;7.558;2023-07-13T09:39:59;21.90;99.90
18948;DHT22;9607;51.600;7.558;2023-07-13T09:42:30;22.10;99.90
18948;DHT22;9607;51.600;7.558;2023-07-13T09:44:58;22.20;99.90
18948;DHT22;9607;51.600;7.558;2023-07-13T09:47:29;22.20;99.90
18948;DHT22;9607;51.600;7.558;2023-07-13T09:49:59;22.20;99.90
18948;DHT22;9607;51.600;7.558;2023-07-13T09:52:38;22.30;99.90
18948;DHT22;9607;51.600;7.558;2023-07-13T09:55:23;22.40;99.70
18948;DHT22;9607;51.600;7.558;2023-07-13T09:57:50;22.50;98.90
18948;DHT22;9607;51.600;7.558;2023-07-13T10:00:22;22.60;98.90
18948;DHT22;9607;51.600;7.558;2023-07-13T10:02:59;22.80;98.20
18948;DHT22;9607;51.600;7.558;2023-07-13T10:05:27;23.00;98.00
18948;DHT22;9607;51.600;7.558;2023-07-13T10:07:56;23.00;97.30
18948;DHT22;9607;51.600;7.558;2023-07-13T10:10:23;23.00;97.50
18948;DHT22;9607;51.600;7.558;2023-07-13T10:12:50;23.10;97.80
18948;DHT22;9607;51.600;7.558;2023-07-13T10:15:19;23.30;97.80
18948;DHT22;9607;51.600;7.558;2023-07-13T10:17:47;23.60;96.40
18948;DHT22;9607;51.600;7.558;2023-07-13T10:20:14;23.60;94.70
18948;DHT22;9607;51.600;7.558;2023-07-13T10:22:46;23.60;94.60
18948;DHT22;9607;51.600;7.558;2023-07-13T10:25:18;23.60;94.40
18948;DHT22;9607;51.600;7.558;2023-07-13T10:27:45;23.70;94.00
18948;DHT22;9607;51.600;7.558;2023-07-13T10:30:17;23.70;93.30
18948;DHT22;9607;51.600;7.558;2023-07-13T10:32:45;23.50;93.50
18948;DHT22;9607;51.600;7.558;2023-07-13T10:35:15;23.30;92.70
18948;DHT22;9607;51.600;7.558;2023-07-13T10:37:48;23.20;93.70
18948;DHT22;9607;51.600;7.558;2023-07-13T10:40:19;23.30;94.50
18948;DHT22;9607;51.600;7.558;2023-07-13T10:42:50;23.50;93.60
18948;DHT22;9607;51.600;7.558;2023-07-13T10:45:21;23.60;92.70
18948;DHT22;9607;51.600;7.558;2023-07-13T10:47:49;23.70;93.00
18948;DHT22;9607;51.600;7.558;2023-07-13T10:50:20;23.80;92.10
18948;DHT22;9607;51.600;7.558;2023-07-13T10:52:50;23.90;92.20
18948;DHT22;9607;51.600;7.558;2023-07-13T10:55:37;24.10;92.20
18948;DHT22;9607;51.600;7.558;2023-07-13T10:58:13;24.10;89.70
18948;DHT22;9607;51.600;7.558;2023-07-13T11:00:47;24.10;89.70
18948;DHT22;9607;51.600;7.558;2023-07-13T11:03:18;24.10;90.80
18948;DHT22;9607;51.600;7.558;2023-07-13T11:05:49;24.30;90.50
18948;DHT22;9607;51.600;7.558;2023-07-13T11:08:21;24.40;90.10
18948;DHT22;9607;51.600;7.558;2023-07-13T11:10:58;24.40;88.50
18948;DHT22;9607;51.600;7.558;2023-07-13T11:16:42;24.70;91.00
18948;DHT22;9607;51.600;7.558;2023-07-13T11:19:40;24.70;90.70
18948;DHT22;9607;51.600;7.558;2023-07-13T11:22:16;24.60;90.30
18948;DHT22;9607;51.600;7.558;2023-07-13T11:24:58;24.90;90.10
18948;DHT22;9607;51.600;7.558;2023-07-13T11:27:38;25.20;87.00
18948;DHT22;9607;51.600;7.558;2023-07-13T11:30:35;25.20;85.00
18948;DHT22;9607;51.600;7.558;2023-07-13T11:33:04;25.10;82.00
18948;DHT22;9607;51.600;7.558;2023-07-13T11:35:44;24.90;84.20
18948;DHT22;9607;51.600;7.558;2023-07-13T11:38:16;24.90;84.20
18948;DHT22;9607;51.600;7.558;2023-07-13T11:40:46;24.70;84.90
18948;DHT22;9607;51.600;7.558;2023-07-13T11:43:15;24.60;85.10
18948;DHT22;9607;51.600;7.558;2023-07-13T11:45:43;24.50;86.50
18948;DHT22;9607;51.600;7.558;2023-07-13T11:48:21;24.40;87.10
18948;DHT22;9607;51.600;7.558;2023-07-13T11:50:58;24.10;88.80
18948;DHT22;9607;51.600;7.558;2023-07-13T11:53:28;24.10;89.30
18948;DHT22;9607;51.600;7.558;2023-07-13T11:55:57;24.00;88.20
18948;DHT22;9607;51.600;7.558;2023-07-13T11:58:26;24.20;87.10
18948;DHT22;9607;51.600;7.558;2023-07-13T12:00:56;24.30;85.50
18948;DHT22;9607;51.600;7.558;2023-07-13T12:03:26;24.20;83.90
18948;DHT22;9607;51.600;7.558;2023-07-13T12:06:00;24.10;83.90
18948;DHT22;9607;51.600;7.558;2023-07-13T12:08:27;24.10;85.80
18948;DHT22;9607;51.600;7.558;2023-07-13T12:11:03;24.10;86.00
18948;DHT22;9607;51.600;7.558;2023-07-13T12:13:36;24.20;84.70
18948;DHT22;9607;51.600;7.558;2023-07-13T12:16:11;24.30;83.90
18948;DHT22;9607;51.600;7.558;2023-07-13T12:18:38;24.70;82.50
18948;DHT22;9607;51.600;7.558;2023-07-13T12:21:12;24.90;79.80
18948;DHT22;9607;51.600;7.558;2023-07-13T12:23:39;24.70;77.80
18948;DHT22;9607;51.600;7.558;2023-07-13T12:26:11;25.10;77.80
18948;DHT22;9607;51.600;7.558;2023-07-13T12:28:44;25.90;75.90
18948;DHT22;9607;51.600;7.558;2023-07-13T12:31:24;26.90;74.30
18948;DHT22;9607;51.600;7.558;2023-07-13T12:33:57;28.10;67.50
18948;DHT22;9607;51.600;7.558;2023-07-13T12:36:24;29.30;63.40
18948;DHT22;9607;51.600;7.558;2023-07-13T12:38:51;29.40;58.70
18948;DHT22;9607;51.600;7.558;2023-07-13T12:41:19;29.30;57.20
18948;DHT22;9607;51.600;7.558;2023-07-13T12:43:48;29.60;57.50
18948;DHT22;9607;51.600;7.558;2023-07-13T12:46:18;30.40;55.20
18948;DHT22;9607;51.600;7.558;2023-07-13T12:48:49;31.30;52.60
18948;DHT22;9607;51.600;7.558;2023-07-13T12:51:16;32.00;51.30
18948;DHT22;9607;51.600;7.558;2023-07-13T12:53:48;32.80;49.00
18948;DHT22;9607;51.600;7.558;2023-07-13T12:56:21;33.70;47.50
18948;DHT22;9607;51.600;7.558;2023-07-13T12:58:49;34.10;45.80
18948;DHT22;9607;51.600;7.558;2023-07-13T13:01:21;34.40;44.10
18948;DHT22;9607;51.600;7.558;2023-07-13T13:03:50;34.20;43.20
18948;DHT22;9607;51.600;7.558;2023-07-13T13:06:23;34.30;44.00
18948;DHT22;9607;51.600;7.558;2023-07-13T13:08:51;33.40;42.70
18948;DHT22;9607;51.600;7.558;2023-07-13T13:11:20;31.70;44.50
18948;DHT22;9607;51.600;7.558;2023-07-13T13:13:49;30.60;47.30
18948;DHT22;9607;51.600;7.558;2023-07-13T13:16:20;29.50;48.80
18948;DHT22;9607;51.600;7.558;2023-07-13T13:18:47;28.60;51.20
18948;DHT22;9607;51.600;7.558;2023-07-13T13:21:15;28.10;51.40
18948;DHT22;9607;51.600;7.558;2023-07-13T13:23:42;27.60;52.60
18948;DHT22;9607;51.600;7.558;2023-07-13T13:26:10;27.40;53.90
18948;DHT22;9607;51.600;7.558;2023-07-13T13:28:39;27.20;54.00
18948;DHT22;9607;51.600;7.558;2023-07-13T13:31:08;27.10;53.80
18948;DHT22;9607;51.600;7.558;2023-07-13T13:33:39;26.70;54.50
18948;DHT22;9607;51.600;7.558;2023-07-13T13:36:13;26.40;55.60
18948;DHT22;9607;51.600;7.558;2023-07-13T13:38:42;26.10;56.20
18948;DHT22;9607;51.600;7.558;2023-07-13T13:41:10;25.60;57.00
18948;DHT22;9607;51.600;7.558;2023-07-13T13:43:40;24.70;63.00
18948;DHT22;9607;51.600;7.558;2023-07-13T13:46:13;22.90;74.10
18948;DHT22;9607;51.600;7.558;2023-07-13T13:48:41;21.50;89.20
18948;DHT22;9607;51.600;7.558;2023-07-13T13:51:15;20.70;96.60
18948;DHT22;9607;51.600;7.558;2023-07-13T13:53:43;20.10;99.90
18948;DHT22;9607;51.600;7.558;2023-07-13T13:56:11;19.70;99.90
18948;DHT22;9607;51.600;7.558;2023-07-13T13:58:40;19.10;99.90
18948;DHT22;9607;51.600;7.558;2023-07-13T14:01:12;18.20;99.90
18948;DHT22;9607;51.600;7.558;2023-07-13T14:03:39;17.40;99.90
18948;DHT22;9607;51.600;7.558;2023-07-13T14:06:08;16.80;99.90
18948;DHT22;9607;51.600;7.558;2023-07-13T14:08:35;16.40;99.90
18948;DHT22;9607;51.600;7.558;2023-07-13T14:11:02;16.10;99.90
18948;DHT22;9607;51.600;7.558;2023-07-13T14:13:34;15.90;99.90
18948;DHT22;9607;51.600;7.558;2023-07-13T14:16:08;15.80;99.90
18948;DHT22;9607;51.600;7.558;2023-07-13T14:18:35;15.70;99.90
18948;DHT22;9607;51.600;7.558;2023-07-13T14:21:02;15.60;99.90
18948;DHT22;9607;51.600;7.558;2023-07-13T14:23:29;15.70;99.90
18948;DHT22;9607;51.600;7.558;2023-07-13T14:25:56;15.80;99.90
18948;DHT22;9607;51.600;7.558;2023-07-13T14:28:25;16.00;99.90
18948;DHT22;9607;51.600;7.558;2023-07-13T14:30:52;16.20;99.90
18948;DHT22;9607;51.600;7.558;2023-07-13T14:33:21;16.50;99.90
18948;DHT22;9607;51.600;7.558;2023-07-13T14:35:49;16.70;99.90
18948;DHT22;9607;51.600;7.558;2023-07-13T14:38:19;16.90;99.90
18948;DHT22;9607;51.600;7.558;2023-07-13T14:40:46;17.00;99.90
18948;DHT22;9607;51.600;7.558;2023-07-13T14:43:14;17.30;99.90
18948;DHT22;9607;51.600;7.558;2023-07-13T14:45:44;17.40;99.90
18948;DHT22;9607;51.600;7.558;2023-07-13T14:48:17;17.50;99.90
18948;DHT22;9607;51.600;7.558;2023-07-13T14:50:47;17.50;99.90
18948;DHT22;9607;51.600;7.558;2023-07-13T14:53:13;17.60;99.90
18948;DHT22;9607;51.600;7.558;2023-07-13T14:55:40;17.70;99.90
18948;DHT22;9607;51.600;7.558;2023-07-13T14:58:08;17.90;99.90
18948;DHT22;9607;51.600;7.558;2023-07-13T15:00:35;18.10;99.90
18948;DHT22;9607;51.600;7.558;2023-07-13T15:03:04;18.30;99.90
18948;DHT22;9607;51.600;7.558;2023-07-13T15:05:32;18.50;99.90
18948;DHT22;9607;51.600;7.558;2023-07-13T15:08:02;18.60;99.90
18948;DHT22;9607;51.600;7.558;2023-07-13T15:10:31;18.60;99.90
18948;DHT22;9607;51.600;7.558;2023-07-13T15:13:01;18.60;99.90
18948;DHT22;9607;51.600;7.558;2023-07-13T15:15:30;18.40;99.90
18948;DHT22;9607;51.600;7.558;2023-07-13T15:17:59;18.40;99.90
18948;DHT22;9607;51.600;7.558;2023-07-13T15:20:31;18.40;99.90
18948;DHT22;9607;51.600;7.558;2023-07-13T15:22:59;18.60;99.90
18948;DHT22;9607;51.600;7.558;2023-07-13T15:25:28;19.30;99.90
18948;DHT22;9607;51.600;7.558;2023-07-13T15:27:56;21.00;99.90
18948;DHT22;9607;51.600;7.558;2023-07-13T15:30:24;23.20;99.90
18948;DHT22;9607;51.600;7.558;2023-07-13T15:32:52;24.50;99.90
18948;DHT22;9607;51.600;7.558;2023-07-13T15:35:21;25.00;99.90
18948;DHT22;9607;51.600;7.558;2023-07-13T15:37:49;25.40;99.90
18948;DHT22;9607;51.600;7.558;2023-07-13T15:40:17;26.50;99.90
18948;DHT22;9607;51.600;7.558;2023-07-13T15:42:47;26.90;99.90
18948;DHT22;9607;51.600;7.558;2023-07-13T15:45:16;27.20;99.90
18948;DHT22;9607;51.600;7.558;2023-07-13T15:47:44;27.30;99.90
18948;DHT22;9607;51.600;7.558;2023-07-13T15:50:14;27.20;99.90
18948;DHT22;9607;51.600;7.558;2023-07-13T15:52:42;27.70;99.90
18948;DHT22;9607;51.600;7.558;2023-07-13T15:55:11;28.20;99.90
18948;DHT22;9607;51.600;7.558;2023-07-13T15:57:40;29.10;99.90
18948;DHT22;9607;51.600;7.558;2023-07-13T16:00:16;30.20;99.90